Flight Track Log - Related Links

Times and Time Zones

All times are in EDT time to prevent confusion due to time zone crossing. See the CHQ6156 flight status page for this flight to view local times or setup timezone preferences in your user account.

Time Position Orientation Groundspeed Altitude Reporting Facility
EDT Latitude Longitude Course Direction KTS MPH feet Rate Location/Type
Thu 08:17:09 PM 42.2297 -83.3339 180° South 158 182 1,400  Level Cleveland Center
Thu 08:17:45 PM 42.2489 -83.3025 50° Northeast 195 224 2,700 2,169 Climbing Cleveland Center
Thu 08:19:19 PM 42.2553 -83.1867 86° East 245 282 6,100 2,344 Climbing Cleveland Center
Thu 08:19:53 PM 42.2350 -83.1258 114° Southeast 287 330 7,700 2,459 Climbing Cleveland Center
Thu 08:20:00 PM 41.8151 -83.4799 180° South  Level Estimated
Thu 08:20:20 PM 42.2142 -83.1111 152° Southeast 281 323 8,600  Level Cleveland Center
Thu 08:20:54 PM 42.1614 -83.1328 197° South 281 323 10,500 2,419 Climbing Cleveland Center
Thu 08:21:00 PM 41.7158 -83.5113 180° South  Level Estimated
Thu 08:21:22 PM 42.1381 -83.1414 195° South 282 325 11,100  Level Cleveland Center
Thu 08:22:00 PM 41.6164 -83.5426 180° South  Level Estimated
Thu 08:22:24 PM 42.0592 -83.1767 198° South 292 336 12,900  Level Cleveland Center
Thu 08:23:26 PM 41.9503 -83.2222 197° South 345 397 14,200 1,415 Climbing Cleveland Center
Thu 08:24:27 PM 41.8517 -83.2647 198° South 357 411 15,800 1,561 Climbing Cleveland Center
Thu 08:25:29 PM 41.7542 -83.3056 197° South 358 412 17,400 1,452 Climbing Cleveland Center
Thu 08:26:31 PM 41.6550 -83.3383 194° South 371 427 18,800 1,403 Climbing Cleveland Center
Thu 08:27:33 PM 41.5481 -83.3367 179° South 383 441 20,300 1,463 Climbing Cleveland Center
Thu 08:28:34 PM 41.4481 -83.3786 197° South 373 429 21,800 1,337 Climbing Cleveland Center
Thu 08:30:19 PM 41.2731 -83.4803 204° Southwest 374 430 24,000 714 Climbing Indianapolis Center
Thu 08:31:39 PM 41.1328 -83.5633 204° Southwest 399 459 24,000  Level Cleveland Center
Thu 08:32:41 PM 41.0269 -83.6225 203° Southwest 410 472 24,000  Level Cleveland Center
Thu 08:33:43 PM 40.9225 -83.6828 204° Southwest 411 473 24,000  Level Cleveland Center
Thu 08:34:25 PM 40.8606 -83.7175 203° Southwest 408 470 24,000  Level Indianapolis Center
Thu 08:36:48 PM 40.6083 -83.8622 204° Southwest 411 473 24,000  Level Cleveland Center
Thu 08:37:30 PM 40.5247 -83.9094 203° Southwest 410 472 24,000  Level Indianapolis Center
Thu 08:38:31 PM 40.4208 -83.9692 204° Southwest 410 472 24,000  Level Indianapolis Center
Thu 08:39:33 PM 40.3164 -84.0272 203° Southwest 410 472 24,000  Level Indianapolis Center
Thu 08:40:34 PM 40.2114 -84.0836 202° Southwest 410 472 24,000  Level Indianapolis Center
Thu 08:41:35 PM 40.1067 -84.1394 202° Southwest 410 472 24,000  Level Indianapolis Center
Thu 08:42:37 PM 39.9811 -84.2053 202° Southwest 410 472 24,000  Level Indianapolis Center
Thu 08:43:38 PM 39.8767 -84.2608 202° Southwest 410 472 24,000  Level Indianapolis Center
Thu 08:44:40 PM 39.7728 -84.3144 202° Southwest 410 472 24,000  Level Indianapolis Center
Thu 08:45:41 PM 39.6669 -84.3703 202° Southwest 410 472 24,000  Level Indianapolis Center
Thu 08:46:43 PM 39.5608 -84.4242 201° Southwest 410 472 24,000  Level Indianapolis Center
Thu 08:47:44 PM 39.4556 -84.4789 202° Southwest 410 472 24,000  Level Indianapolis Center
Thu 08:48:46 PM 39.3500 -84.5344 202° Southwest 410 472 24,000  Level Indianapolis Center
Thu 08:49:47 PM 39.2214 -84.5983 201° Southwest 411 473 24,000 -984 Level Indianapolis Center
Thu 08:50:48 PM 39.1156 -84.6536 202° Southwest 411 473 22,000 -2,098 Descending Indianapolis Center
Thu 08:51:50 PM 39.0097 -84.7094 202° Southwest 411 473 19,700 -2,298 Descending Indianapolis Center
Thu 08:52:22 PM 38.9500 -84.7667 217° Southwest 416 479 18,400 -2,056 Descending Cincinnati TRACON
Thu 08:54:48 PM 38.7500 -84.9667 213° Southwest 373 429 13,600 -1,803 Descending Louisville TRACON
Thu 08:55:55 PM 38.6542 -85.0550 216° Southwest 376 433 12,000 -884 Descending Indianapolis Center
Thu 08:56:57 PM 38.5714 -85.1322 216° Southwest 374 430 11,700 -780 Descending Indianapolis Center
Thu 08:57:58 PM 38.5000 -85.2011 217° Southwest 347 399 10,400 -1,279 Descending Indianapolis Center
Thu 08:58:59 PM 38.4289 -85.1928 175° South 305 351 9,100 -683 Descending Indianapolis Center
Thu 09:00:01 PM 38.3747 -85.1167 132° Southeast 290 334 9,000 -49 Descending Indianapolis Center
Thu 09:01:02 PM 38.3253 -85.0378 129° Southeast 288 331 9,000 -49 Level Indianapolis Center
Thu 09:02:04 PM 38.2731 -84.9589 130° Southeast 288 331 8,900 -927 Descending Indianapolis Center
Thu 09:03:05 PM 38.2122 -84.8939 140° Southeast 287 330 7,100 -1,255 Descending Indianapolis Center
Thu 09:07:10 PM 37.9942 -84.6675 141° Southeast 224 258 2,500 -1,127 Descending Indianapolis Center

Login

Don't have an account? Register now (free) for customized features, flight alerts, and more!